sensor_id;sensor_type;location;lat;lon;timestamp;pressure;altitude;pressure_sealevel;temperature;humidity
49835;BME280;35729;52.090;13.162;2023-03-01T00:01:48;102611.50;;;-3.71;80.55
49835;BME280;35729;52.090;13.162;2023-03-01T00:04:16;102602.81;;;-3.73;80.46
49835;BME280;35729;52.090;13.162;2023-03-01T00:06:45;102601.69;;;-3.77;80.48
49835;BME280;35729;52.090;13.162;2023-03-01T00:09:14;102603.38;;;-3.78;80.53
49835;BME280;35729;52.090;13.162;2023-03-01T00:11:45;102601.38;;;-3.82;80.66
49835;BME280;35729;52.090;13.162;2023-03-01T00:14:14;102597.75;;;-3.85;80.75
49835;BME280;35729;52.090;13.162;2023-03-01T00:16:44;102594.09;;;-3.89;80.89
49835;BME280;35729;52.090;13.162;2023-03-01T00:19:14;102591.31;;;-3.92;81.03
49835;BME280;35729;52.090;13.162;2023-03-01T00:21:43;102591.00;;;-3.97;81.06
49835;BME280;35729;52.090;13.162;2023-03-01T00:24:12;102591.69;;;-3.99;81.12
49835;BME280;35729;52.090;13.162;2023-03-01T00:26:41;102578.66;;;-4.02;81.22
49835;BME280;35729;52.090;13.162;2023-03-01T00:29:12;102576.69;;;-4.06;81.22
49835;BME280;35729;52.090;13.162;2023-03-01T00:31:40;102571.44;;;-4.08;80.99
49835;BME280;35729;52.090;13.162;2023-03-01T00:34:09;102567.78;;;-4.12;81.06
49835;BME280;35729;52.090;13.162;2023-03-01T00:36:37;102566.78;;;-4.14;81.23
49835;BME280;35729;52.090;13.162;2023-03-01T00:39:10;102561.47;;;-4.17;81.37
49835;BME280;35729;52.090;13.162;2023-03-01T00:41:39;102563.03;;;-4.19;81.27
49835;BME280;35729;52.090;13.162;2023-03-01T00:44:08;102550.88;;;-4.21;81.36
49835;BME280;35729;52.090;13.162;2023-03-01T00:46:46;102562.69;;;-4.23;81.57
49835;BME280;35729;52.090;13.162;2023-03-01T00:49:15;102553.13;;;-4.26;81.55
49835;BME280;35729;52.090;13.162;2023-03-01T00:51:43;102552.16;;;-4.28;81.56
49835;BME280;35729;52.090;13.162;2023-03-01T00:54:12;102553.72;;;-4.30;81.48
49835;BME280;35729;52.090;13.162;2023-03-01T00:56:40;102551.06;;;-4.32;81.79
49835;BME280;35729;52.090;13.162;2023-03-01T00:59:09;102541.47;;;-4.34;81.67
49835;BME280;35729;52.090;13.162;2023-03-01T01:01:37;102544.81;;;-4.35;81.92
49835;BME280;35729;52.090;13.162;2023-03-01T01:04:10;102547.19;;;-4.38;82.00
49835;BME280;35729;52.090;13.162;2023-03-01T01:06:42;102554.75;;;-4.40;81.90
49835;BME280;35729;52.090;13.162;2023-03-01T01:09:12;102546.97;;;-4.42;81.93
49835;BME280;35729;52.090;13.162;2023-03-01T01:11:43;102541.66;;;-4.45;82.18
49835;BME280;35729;52.090;13.162;2023-03-01T01:14:11;102546.53;;;-4.48;81.78
49835;BME280;35729;52.090;13.162;2023-03-01T01:16:40;102543.88;;;-4.49;82.10
49835;BME280;35729;52.090;13.162;2023-03-01T01:19:12;102543.00;;;-4.50;82.16
49835;BME280;35729;52.090;13.162;2023-03-01T01:21:41;102537.06;;;-4.49;81.96
49835;BME280;35729;52.090;13.162;2023-03-01T01:24:10;102530.97;;;-4.51;82.19
49835;BME280;35729;52.090;13.162;2023-03-01T01:26:39;102533.63;;;-4.49;82.21
49835;BME280;35729;52.090;13.162;2023-03-01T01:29:08;102533.53;;;-4.51;82.23
49835;BME280;35729;52.090;13.162;2023-03-01T01:31:38;102544.56;;;-4.52;82.20
49835;BME280;35729;52.090;13.162;2023-03-01T01:34:12;102547.81;;;-4.54;82.20
49835;BME280;35729;52.090;13.162;2023-03-01T01:36:41;102547.69;;;-4.56;82.07
49835;BME280;35729;52.090;13.162;2023-03-01T01:39:09;102548.38;;;-4.59;82.34
49835;BME280;35729;52.090;13.162;2023-03-01T01:41:40;102546.50;;;-4.61;82.27
49835;BME280;35729;52.090;13.162;2023-03-01T01:44:12;102547.19;;;-4.64;82.31
49835;BME280;35729;52.090;13.162;2023-03-01T01:46:44;102544.38;;;-4.67;82.39
49835;BME280;35729;52.090;13.162;2023-03-01T01:49:23;102540.81;;;-4.69;82.27
49835;BME280;35729;52.090;13.162;2023-03-01T01:51:59;102537.28;;;-4.71;82.55
49835;BME280;35729;52.090;13.162;2023-03-01T01:54:34;102534.38;;;-4.76;82.45
49835;BME280;35729;52.090;13.162;2023-03-01T01:57:10;102527.47;;;-4.77;82.35
49835;BME280;35729;52.090;13.162;2023-03-01T01:59:41;102522.16;;;-4.80;82.66
49835;BME280;35729;52.090;13.162;2023-03-01T02:02:11;102512.78;;;-4.79;82.58
49835;BME280;35729;52.090;13.162;2023-03-01T02:04:43;102513.56;;;-4.80;82.72
49835;BME280;35729;52.090;13.162;2023-03-01T02:07:15;102508.34;;;-4.82;82.70
49835;BME280;35729;52.090;13.162;2023-03-01T02:09:46;102512.50;;;-4.84;82.86
49835;BME280;35729;52.090;13.162;2023-03-01T02:12:18;102503.81;;;-4.86;82.68
49835;BME280;35729;52.090;13.162;2023-03-01T02:14:46;102495.94;;;-4.89;82.70
49835;BME280;35729;52.090;13.162;2023-03-01T02:17:17;102502.59;;;-4.91;82.80
49835;BME280;35729;52.090;13.162;2023-03-01T02:20:00;102495.69;;;-4.92;82.89
49835;BME280;35729;52.090;13.162;2023-03-01T02:22:35;102496.38;;;-4.95;82.78
49835;BME280;35729;52.090;13.162;2023-03-01T02:27:53;102510.63;;;-4.98;82.86
49835;BME280;35729;52.090;13.162;2023-03-01T02:30:27;102509.66;;;-5.00;82.78
49835;BME280;35729;52.090;13.162;2023-03-01T02:32:57;102502.66;;;-5.03;83.00
49835;BME280;35729;52.090;13.162;2023-03-01T02:35:28;102504.28;;;-5.03;82.97
49835;BME280;35729;52.090;13.162;2023-03-01T02:37:58;102504.19;;;-5.05;83.01
49835;BME280;35729;52.090;13.162;2023-03-01T02:40:28;102506.53;;;-5.08;82.67
49835;BME280;35729;52.090;13.162;2023-03-01T02:42:58;102497.78;;;-5.12;82.71
49835;BME280;35729;52.090;13.162;2023-03-01T02:45:29;102509.75;;;-5.11;82.66
49835;BME280;35729;52.090;13.162;2023-03-01T02:47:58;102507.09;;;-5.12;82.79
49835;BME280;35729;52.090;13.162;2023-03-01T02:50:44;102502.66;;;-5.15;82.88
49835;BME280;35729;52.090;13.162;2023-03-01T02:53:17;102500.88;;;-5.16;82.71
49835;BME280;35729;52.090;13.162;2023-03-01T02:55:50;102505.78;;;-5.19;83.02
49835;BME280;35729;52.090;13.162;2023-03-01T02:58:19;102504.88;;;-5.19;82.72
49835;BME280;35729;52.090;13.162;2023-03-01T03:00:51;102498.88;;;-5.20;82.93
49835;BME280;35729;52.090;13.162;2023-03-01T03:03:20;102502.22;;;-5.21;82.99
49835;BME280;35729;52.090;13.162;2023-03-01T03:05:49;102500.31;;;-5.24;82.73
49835;BME280;35729;52.090;13.162;2023-03-01T03:08:18;102504.47;;;-5.26;82.82
49835;BME280;35729;52.090;13.162;2023-03-01T03:10:49;102501.78;;;-5.27;83.13
49835;BME280;35729;52.090;13.162;2023-03-01T03:13:18;102501.69;;;-5.29;82.87
49835;BME280;35729;52.090;13.162;2023-03-01T03:15:50;102506.69;;;-5.30;83.17
49835;BME280;35729;52.090;13.162;2023-03-01T03:18:18;102505.69;;;-5.32;82.87
49835;BME280;35729;52.090;13.162;2023-03-01T03:20:47;102505.56;;;-5.34;82.97
49835;BME280;35729;52.090;13.162;2023-03-01T03:23:18;102496.00;;;-5.36;82.97
49835;BME280;35729;52.090;13.162;2023-03-01T03:25:48;102496.88;;;-5.36;83.10
49835;BME280;35729;52.090;13.162;2023-03-01T03:28:17;102502.91;;;-5.35;83.13
49835;BME280;35729;52.090;13.162;2023-03-01T03:30:46;102501.13;;;-5.36;83.19
49835;BME280;35729;52.090;13.162;2023-03-01T03:33:17;102496.88;;;-5.36;82.96
49835;BME280;35729;52.090;13.162;2023-03-01T03:35:47;102497.69;;;-5.37;82.91
49835;BME280;35729;52.090;13.162;2023-03-01T03:38:18;102498.47;;;-5.38;83.12
49835;BME280;35729;52.090;13.162;2023-03-01T03:40:49;102499.13;;;-5.41;82.98
49835;BME280;35729;52.090;13.162;2023-03-01T03:43:19;102503.25;;;-5.43;83.31
49835;BME280;35729;52.090;13.162;2023-03-01T03:45:50;102495.47;;;-5.44;83.30
49835;BME280;35729;52.090;13.162;2023-03-01T03:48:21;102496.34;;;-5.44;83.42
49835;BME280;35729;52.090;13.162;2023-03-01T03:50:52;102492.91;;;-5.44;83.56
49835;BME280;35729;52.090;13.162;2023-03-01T03:53:21;102495.56;;;-5.43;83.20
49835;BME280;35729;52.090;13.162;2023-03-01T03:55:50;102496.34;;;-5.44;83.27
49835;BME280;35729;52.090;13.162;2023-03-01T03:58:20;102497.13;;;-5.45;83.51
49835;BME280;35729;52.090;13.162;2023-03-01T04:00:51;102503.81;;;-5.47;83.49
49835;BME280;35729;52.090;13.162;2023-03-01T04:03:25;102507.34;;;-5.45;83.66
49835;BME280;35729;52.090;13.162;2023-03-01T04:05:54;102497.78;;;-5.47;83.86
49835;BME280;35729;52.090;13.162;2023-03-01T04:08:25;102501.25;;;-5.47;83.70
49835;BME280;35729;52.090;13.162;2023-03-01T04:10:57;102496.13;;;-5.47;83.89
49835;BME280;35729;52.090;13.162;2023-03-01T04:13:47;102485.81;;;-5.48;83.90
49835;BME280;35729;52.090;13.162;2023-03-01T04:16:16;102491.78;;;-5.48;83.74
49835;BME280;35729;52.090;13.162;2023-03-01T04:18:48;102477.22;;;-5.49;84.02
49835;BME280;35729;52.090;13.162;2023-03-01T04:21:19;102479.00;;;-5.48;83.80
49835;BME280;35729;52.090;13.162;2023-03-01T04:23:47;102475.69;;;-5.47;83.98
49835;BME280;35729;52.090;13.162;2023-03-01T04:26:18;102477.31;;;-5.47;83.93
49835;BME280;35729;52.090;13.162;2023-03-01T04:28:47;102478.22;;;-5.47;83.86
49835;BME280;35729;52.090;13.162;2023-03-01T04:31:17;102465.44;;;-5.47;83.77
49835;BME280;35729;52.090;13.162;2023-03-01T04:33:50;102468.78;;;-5.48;83.74
49835;BME280;35729;52.090;13.162;2023-03-01T04:36:21;102467.91;;;-5.48;83.87
49835;BME280;35729;52.090;13.162;2023-03-01T04:38:50;102465.22;;;-5.50;83.63
49835;BME280;35729;52.090;13.162;2023-03-01T04:41:21;102463.47;;;-5.51;84.06
49835;BME280;35729;52.090;13.162;2023-03-01T04:43:50;102462.53;;;-5.51;83.97
49835;BME280;35729;52.090;13.162;2023-03-01T04:46:20;102462.44;;;-5.53;83.78
49835;BME280;35729;52.090;13.162;2023-03-01T04:48:51;102459.88;;;-5.53;84.08
49835;BME280;35729;52.090;13.162;2023-03-01T04:51:20;102464.00;;;-5.55;83.98
49835;BME280;35729;52.090;13.162;2023-03-01T04:53:49;102464.66;;;-5.58;83.97
49835;BME280;35729;52.090;13.162;2023-03-01T04:56:17;102466.25;;;-5.60;83.87
49835;BME280;35729;52.090;13.162;2023-03-01T04:58:48;102467.78;;;-5.62;83.92
49835;BME280;35729;52.090;13.162;2023-03-01T05:01:18;102459.56;;;-5.69;84.00
49835;BME280;35729;52.090;13.162;2023-03-01T05:03:51;102465.66;;;-5.67;84.02
49835;BME280;35729;52.090;13.162;2023-03-01T05:06:20;102461.22;;;-5.70;83.98
49835;BME280;35729;52.090;13.162;2023-03-01T05:08:49;102462.78;;;-5.72;83.80
49835;BME280;35729;52.090;13.162;2023-03-01T05:11:17;102463.56;;;-5.73;83.84
49835;BME280;35729;52.090;13.162;2023-03-01T05:13:46;102464.22;;;-5.76;83.68
49835;BME280;35729;52.090;13.162;2023-03-01T05:16:15;102460.81;;;-5.76;83.57
49835;BME280;35729;52.090;13.162;2023-03-01T05:18:44;102458.09;;;-5.78;83.71
49835;BME280;35729;52.090;13.162;2023-03-01T05:21:18;102451.88;;;-5.81;83.85
49835;BME280;35729;52.090;13.162;2023-03-01T05:23:47;102449.78;;;-5.87;83.68
49835;BME280;35729;52.090;13.162;2023-03-01T05:26:17;102456.56;;;-5.87;83.80
49835;BME280;35729;52.090;13.162;2023-03-01T05:28:47;102450.34;;;-5.91;83.89
49835;BME280;35729;52.090;13.162;2023-03-01T05:31:16;102455.47;;;-5.91;83.78
49835;BME280;35729;52.090;13.162;2023-03-01T05:33:44;102453.56;;;-5.94;83.85
49835;BME280;35729;52.090;13.162;2023-03-01T05:36:13;102455.88;;;-5.97;83.71
49835;BME280;35729;52.090;13.162;2023-03-01T05:38:44;102454.94;;;-5.99;83.62
49835;BME280;35729;52.090;13.162;2023-03-01T05:41:14;102456.47;;;-6.01;83.93
49835;BME280;35729;52.090;13.162;2023-03-01T05:43:50;102454.69;;;-6.02;83.83
49835;BME280;35729;52.090;13.162;2023-03-01T05:46:25;102458.03;;;-6.03;84.05
49835;BME280;35729;52.090;13.162;2023-03-01T05:48:54;102451.13;;;-6.04;83.98
49835;BME280;35729;52.090;13.162;2023-03-01T05:51:24;102452.69;;;-6.06;83.76
49835;BME280;35729;52.090;13.162;2023-03-01T05:53:55;102454.25;;;-6.08;83.87
49835;BME280;35729;52.090;13.162;2023-03-01T05:56:23;102449.03;;;-6.10;83.89
49835;BME280;35729;52.090;13.162;2023-03-01T05:58:52;102456.47;;;-6.13;83.89
49835;BME280;35729;52.090;13.162;2023-03-01T06:01:20;102458.91;;;-6.14;83.91
49835;BME280;35729;52.090;13.162;2023-03-01T06:03:49;102458.78;;;-6.16;84.00
49835;BME280;35729;52.090;13.162;2023-03-01T06:06:18;102458.56;;;-6.19;83.89
49835;BME280;35729;52.090;13.162;2023-03-01T06:08:46;102458.56;;;-6.19;84.13
49835;BME280;35729;52.090;13.162;2023-03-01T06:11:18;102456.69;;;-6.22;84.08
49835;BME280;35729;52.090;13.162;2023-03-01T06:13:46;102458.44;;;-6.20;84.32
49835;BME280;35729;52.090;13.162;2023-03-01T06:16:15;102450.66;;;-6.22;84.12
49835;BME280;35729;52.090;13.162;2023-03-01T06:18:44;102451.56;;;-6.22;84.29
49835;BME280;35729;52.090;13.162;2023-03-01T06:21:12;102446.56;;;-6.20;84.19
49835;BME280;35729;52.090;13.162;2023-03-01T06:23:41;102453.47;;;-6.19;84.17
49835;BME280;35729;52.090;13.162;2023-03-01T06:26:19;102461.13;;;-6.19;84.13
49835;BME280;35729;52.090;13.162;2023-03-01T06:28:47;102453.47;;;-6.19;84.28
49835;BME280;35729;52.090;13.162;2023-03-01T06:31:16;102457.78;;;-6.18;84.26
49835;BME280;35729;52.090;13.162;2023-03-01T06:33:44;102461.34;;;-6.16;84.30
49835;BME280;35729;52.090;13.162;2023-03-01T06:36:13;102455.56;;;-6.13;84.22
49835;BME280;35729;52.090;13.162;2023-03-01T06:38:44;102456.69;;;-6.10;84.32
49835;BME280;35729;52.090;13.162;2023-03-01T06:41:12;102447.59;;;-6.06;84.45
49835;BME280;35729;52.090;13.162;2023-03-01T06:43:43;102445.38;;;-6.01;84.26
49835;BME280;35729;52.090;13.162;2023-03-01T06:46:12;102446.44;;;-5.98;84.57
49835;BME280;35729;52.090;13.162;2023-03-01T06:48:40;102441.56;;;-5.95;84.35
49835;BME280;35729;52.090;13.162;2023-03-01T06:51:09;102443.56;;;-5.91;84.37
49835;BME280;35729;52.090;13.162;2023-03-01T06:53:37;102444.66;;;-5.87;84.37
49835;BME280;35729;52.090;13.162;2023-03-01T06:56:06;102444.09;;;-5.83;84.39
49835;BME280;35729;52.090;13.162;2023-03-01T06:58:34;102443.53;;;-5.79;84.55
49835;BME280;35729;52.090;13.162;2023-03-01T07:01:08;102442.22;;;-5.74;84.71
49835;BME280;35729;52.090;13.162;2023-03-01T07:03:37;102435.78;;;-5.68;84.64
49835;BME280;35729;52.090;13.162;2023-03-01T07:06:05;102441.19;;;-5.64;84.62
49835;BME280;35729;52.090;13.162;2023-03-01T07:08:41;102438.22;;;-5.58;84.65
49835;BME280;35729;52.090;13.162;2023-03-01T07:11:09;102441.22;;;-5.52;84.92
49835;BME280;35729;52.090;13.162;2023-03-01T07:13:38;102440.63;;;-5.48;84.58
49835;BME280;35729;52.090;13.162;2023-03-01T07:16:09;102432.63;;;-5.41;84.56
49835;BME280;35729;52.090;13.162;2023-03-01T07:18:39;102441.50;;;-5.35;84.95
49835;BME280;35729;52.090;13.162;2023-03-01T07:21:09;102441.81;;;-5.31;85.23
49835;BME280;35729;52.090;13.162;2023-03-01T07:23:39;102449.91;;;-5.25;85.31
49835;BME280;35729;52.090;13.162;2023-03-01T07:26:07;102446.91;;;-5.19;84.99
49835;BME280;35729;52.090;13.162;2023-03-01T07:28:36;102456.81;;;-5.12;85.03
49835;BME280;35729;52.090;13.162;2023-03-01T07:31:05;102455.47;;;-5.07;85.11
49835;BME280;35729;52.090;13.162;2023-03-01T07:33:36;102457.63;;;-4.99;85.25
49835;BME280;35729;52.090;13.162;2023-03-01T07:36:06;102467.44;;;-4.94;85.25
49835;BME280;35729;52.090;13.162;2023-03-01T07:38:34;102466.06;;;-4.88;85.37
49835;BME280;35729;52.090;13.162;2023-03-01T07:41:03;102466.59;;;-4.81;85.52
49835;BME280;35729;52.090;13.162;2023-03-01T07:43:32;102466.25;;;-4.73;85.30
49835;BME280;35729;52.090;13.162;2023-03-01T07:46:01;102468.41;;;-4.66;85.59
49835;BME280;35729;52.090;13.162;2023-03-01T07:48:30;102465.50;;;-4.59;85.34
49835;BME280;35729;52.090;13.162;2023-03-01T07:51:03;102462.56;;;-4.52;85.38
49835;BME280;35729;52.090;13.162;2023-03-01T07:53:32;102469.91;;;-4.45;85.55
49835;BME280;35729;52.090;13.162;2023-03-01T07:56:02;102469.63;;;-4.36;85.49
49835;BME280;35729;52.090;13.162;2023-03-01T07:58:31;102476.13;;;-4.28;85.45
49835;BME280;35729;52.090;13.162;2023-03-01T08:01:01;102469.88;;;-4.19;85.18
49835;BME280;35729;52.090;13.162;2023-03-01T08:03:31;102462.69;;;-4.12;85.59
49835;BME280;35729;52.090;13.162;2023-03-01T08:06:03;102455.16;;;-4.09;85.44
49835;BME280;35729;52.090;13.162;2023-03-01T08:08:33;102454.00;;;-4.00;85.46
49835;BME280;35729;52.090;13.162;2023-03-01T08:11:03;102459.13;;;-3.87;85.24
49835;BME280;35729;52.090;13.162;2023-03-01T08:13:32;102454.50;;;-3.79;85.18
49835;BME280;35729;52.090;13.162;2023-03-01T08:16:02;102451.84;;;-3.67;86.18
49835;BME280;35729;52.090;13.162;2023-03-01T08:18:31;102456.28;;;-3.51;85.74
49835;BME280;35729;52.090;13.162;2023-03-01T08:21:05;102451.91;;;-3.39;85.68
49835;BME280;35729;52.090;13.162;2023-03-01T08:23:34;102463.72;;;-3.28;85.38
49835;BME280;35729;52.090;13.162;2023-03-01T08:26:04;102455.03;;;-3.16;85.15
49835;BME280;35729;52.090;13.162;2023-03-01T08:28:34;102452.13;;;-3.07;84.86
49835;BME280;35729;52.090;13.162;2023-03-01T08:31:03;102451.91;;;-2.97;84.87
49835;BME280;35729;52.090;13.162;2023-03-01T08:33:41;102449.91;;;-2.88;84.99
49835;BME280;35729;52.090;13.162;2023-03-01T08:36:12;102453.91;;;-2.78;84.82
49835;BME280;35729;52.090;13.162;2023-03-01T08:38:41;102443.28;;;-2.69;84.69
49835;BME280;35729;52.090;13.162;2023-03-01T08:41:09;102452.44;;;-2.59;84.59
49835;BME280;35729;52.090;13.162;2023-03-01T08:43:38;102456.47;;;-2.50;84.47
49835;BME280;35729;52.090;13.162;2023-03-01T08:46:06;102447.50;;;-2.41;84.20
49835;BME280;35729;52.090;13.162;2023-03-01T08:48:35;102446.34;;;-2.32;84.18
49835;BME280;35729;52.090;13.162;2023-03-01T08:51:08;102450.38;;;-2.22;84.36
49835;BME280;35729;52.090;13.162;2023-03-01T08:53:39;102444.94;;;-2.11;84.17
49835;BME280;35729;52.090;13.162;2023-03-01T08:56:08;102442.09;;;-2.01;83.84
49835;BME280;35729;52.090;13.162;2023-03-01T08:58:38;102441.75;;;-1.92;83.67
49835;BME280;35729;52.090;13.162;2023-03-01T09:01:07;102435.44;;;-1.83;83.43
49835;BME280;35729;52.090;13.162;2023-03-01T09:03:36;102438.50;;;-1.73;83.31
49835;BME280;35729;52.090;13.162;2023-03-01T09:06:06;102433.91;;;-1.64;83.13
49835;BME280;35729;52.090;13.162;2023-03-01T09:08:36;102437.94;;;-1.53;82.95
49835;BME280;35729;52.090;13.162;2023-03-01T09:11:09;102429.94;;;-1.42;82.86
49835;BME280;35729;52.090;13.162;2023-03-01T09:13:38;102428.81;;;-1.31;82.28
49835;BME280;35729;52.090;13.162;2023-03-01T09:16:07;102433.72;;;-1.19;82.26
49835;BME280;35729;52.090;13.162;2023-03-01T09:18:36;102426.59;;;-1.08;82.43
49835;BME280;35729;52.090;13.162;2023-03-01T09:21:06;102428.84;;;-0.98;81.87
49835;BME280;35729;52.090;13.162;2023-03-01T09:23:36;102421.69;;;-0.87;81.56
49835;BME280;35729;52.090;13.162;2023-03-01T09:26:08;102422.22;;;-0.76;81.10
49835;BME280;35729;52.090;13.162;2023-03-01T09:28:37;102414.16;;;-0.66;81.13
49835;BME280;35729;52.090;13.162;2023-03-01T09:31:06;102408.66;;;-0.56;80.71
49835;BME280;35729;52.090;13.162;2023-03-01T09:33:35;102411.72;;;-0.46;79.99
49835;BME280;35729;52.090;13.162;2023-03-01T09:36:05;102416.53;;;-0.36;79.45
49835;BME280;35729;52.090;13.162;2023-03-01T09:38:35;102407.56;;;-0.26;79.42
49835;BME280;35729;52.090;13.162;2023-03-01T09:41:17;102406.22;;;-0.18;78.95
49835;BME280;35729;52.090;13.162;2023-03-01T09:43:49;102408.44;;;-0.08;77.35
49835;BME280;35729;52.090;13.162;2023-03-01T09:46:21;102407.94;;;-0.01;78.72
49835;BME280;35729;52.090;13.162;2023-03-01T09:48:52;102406.69;;;0.09;77.22
49835;BME280;35729;52.090;13.162;2023-03-01T09:51:27;102408.91;;;0.20;77.85
49835;BME280;35729;52.090;13.162;2023-03-01T09:53:57;102409.31;;;0.29;73.08
49835;BME280;35729;52.090;13.162;2023-03-01T09:56:33;102406.38;;;0.39;77.13
49835;BME280;35729;52.090;13.162;2023-03-01T09:59:11;102396.47;;;0.48;75.59
49835;BME280;35729;52.090;13.162;2023-03-01T10:01:51;102400.44;;;0.60;75.19
49835;BME280;35729;52.090;13.162;2023-03-01T10:04:28;102400.91;;;0.71;75.08
49835;BME280;35729;52.090;13.162;2023-03-01T10:07:20;102402.16;;;0.79;73.43
49835;BME280;35729;52.090;13.162;2023-03-01T10:09:50;102401.75;;;0.89;74.71
49835;BME280;35729;52.090;13.162;2023-03-01T10:12:26;102398.69;;;0.98;74.45
49835;BME280;35729;52.090;13.162;2023-03-01T10:15:01;102398.97;;;1.04;73.83
49835;BME280;35729;52.090;13.162;2023-03-01T10:17:37;102390.72;;;1.13;73.13
49835;BME280;35729;52.090;13.162;2023-03-01T10:20:16;102383.38;;;1.22;72.69
49835;BME280;35729;52.090;13.162;2023-03-01T10:22:44;102381.94;;;1.29;73.20
49835;BME280;35729;52.090;13.162;2023-03-01T10:25:24;102385.72;;;1.37;73.13
49835;BME280;35729;52.090;13.162;2023-03-01T10:28:02;102380.81;;;1.43;71.75
49835;BME280;35729;52.090;13.162;2023-03-01T10:30:36;102388.09;;;1.52;71.89
49835;BME280;35729;52.090;13.162;2023-03-01T10:33:09;102385.81;;;1.60;69.52
49835;BME280;35729;52.090;13.162;2023-03-01T10:35:42;102378.38;;;1.68;72.36
49835;BME280;35729;52.090;13.162;2023-03-01T10:38:12;102373.38;;;1.72;71.67
49835;BME280;35729;52.090;13.162;2023-03-01T10:40:53;102372.88;;;1.81;69.29
49835;BME280;35729;52.090;13.162;2023-03-01T10:43:26;102374.16;;;1.91;68.80
49835;BME280;35729;52.090;13.162;2023-03-01T10:45:55;102378.78;;;2.00;69.13
49835;BME280;35729;52.090;13.162;2023-03-01T10:48:25;102365.25;;;2.07;69.39
49835;BME280;35729;52.090;13.162;2023-03-01T10:51:05;102372.41;;;2.13;65.53
49835;BME280;35729;52.090;13.162;2023-03-01T10:53:36;102357.94;;;2.18;65.61
49835;BME280;35729;52.090;13.162;2023-03-01T10:56:08;102351.28;;;2.24;66.05
49835;BME280;35729;52.090;13.162;2023-03-01T10:58:41;102359.31;;;2.32;64.12
49835;BME280;35729;52.090;13.162;2023-03-01T11:01:25;102345.84;;;2.41;66.62
49835;BME280;35729;52.090;13.162;2023-03-01T11:04:10;102347.84;;;2.48;62.78
49835;BME280;35729;52.090;13.162;2023-03-01T11:06:58;102346.41;;;2.56;63.61
49835;BME280;35729;52.090;13.162;2023-03-01T11:09:32;102340.69;;;2.65;63.36
49835;BME280;35729;52.090;13.162;2023-03-01T11:12:11;102340.13;;;2.74;65.22
49835;BME280;35729;52.090;13.162;2023-03-01T11:14:49;102333.59;;;2.84;65.15
49835;BME280;35729;52.090;13.162;2023-03-01T11:17:23;102332.94;;;2.89;64.37
49835;BME280;35729;52.090;13.162;2023-03-01T11:20:13;102326.19;;;2.95;61.43
49835;BME280;35729;52.090;13.162;2023-03-01T11:22:49;102324.56;;;2.98;63.47
49835;BME280;35729;52.090;13.162;2023-03-01T11:25:24;102322.97;;;3.02;62.49
49835;BME280;35729;52.090;13.162;2023-03-01T11:27:54;102321.38;;;3.05;62.03
49835;BME280;35729;52.090;13.162;2023-03-01T11:30:28;102322.41;;;3.10;62.08
49835;BME280;35729;52.090;13.162;2023-03-01T11:33:10;102311.41;;;3.18;59.04
49835;BME280;35729;52.090;13.162;2023-03-01T11:35:44;102319.47;;;3.25;61.81
49835;BME280;35729;52.090;13.162;2023-03-01T11:38:22;102323.13;;;3.32;61.38
49835;BME280;35729;52.090;13.162;2023-03-01T11:40:55;102314.63;;;3.36;58.09
49835;BME280;35729;52.090;13.162;2023-03-01T11:43:34;102316.53;;;3.42;61.85
49835;BME280;35729;52.090;13.162;2023-03-01T11:49:37;102303.00;;;3.51;58.93
49835;BME280;35729;52.090;13.162;2023-03-01T11:52:15;102304.84;;;3.55;59.27
49835;BME280;35729;52.090;13.162;2023-03-01T11:54:56;102307.63;;;3.61;59.03
49835;BME280;35729;52.090;13.162;2023-03-01T11:57:40;102307.75;;;3.64;54.80
49835;BME280;35729;52.090;13.162;2023-03-01T12:00:20;102310.56;;;3.70;55.37
49835;BME280;35729;52.090;13.162;2023-03-01T12:03:10;102308.97;;;3.75;53.64
49835;BME280;35729;52.090;13.162;2023-03-01T12:06:08;102296.09;;;3.79;55.22
49835;BME280;35729;52.090;13.162;2023-03-01T12:08:43;102296.19;;;3.82;57.31
49835;BME280;35729;52.090;13.162;2023-03-01T12:11:23;102295.44;;;3.86;53.80
49835;BME280;35729;52.090;13.162;2023-03-01T12:14:09;102294.75;;;3.91;55.64
49835;BME280;35729;52.090;13.162;2023-03-01T12:20:07;102286.50;;;4.05;54.96
49835;BME280;35729;52.090;13.162;2023-03-01T12:22:50;102279.72;;;4.10;56.91
49835;BME280;35729;52.090;13.162;2023-03-01T12:25:28;102281.56;;;4.14;54.25
49835;BME280;35729;52.090;13.162;2023-03-01T12:28:20;102274.94;;;4.24;53.48
49835;BME280;35729;52.090;13.162;2023-03-01T12:31:22;102267.31;;;4.30;52.95
49835;BME280;35729;52.090;13.162;2023-03-01T12:34:03;102265.91;;;4.42;54.55
49835;BME280;35729;52.090;13.162;2023-03-01T12:37:16;102267.09;;;4.53;53.68
49835;BME280;35729;52.090;13.162;2023-03-01T12:40:16;102260.34;;;4.61;51.24
49835;BME280;35729;52.090;13.162;2023-03-01T12:43:06;102254.59;;;4.71;54.10
49835;BME280;35729;52.090;13.162;2023-03-01T12:45:47;102254.03;;;4.83;50.41
49835;BME280;35729;52.090;13.162;2023-03-01T12:48:27;102258.75;;;4.98;55.27
49835;BME280;35729;52.090;13.162;2023-03-01T12:51:01;102248.81;;;5.17;55.31
49835;BME280;35729;52.090;13.162;2023-03-01T12:53:35;102239.81;;;5.41;54.17
49835;BME280;35729;52.090;13.162;2023-03-01T12:56:10;102249.97;;;5.66;50.46
49835;BME280;35729;52.090;13.162;2023-03-01T12:58:42;102255.81;;;5.94;53.31
49835;BME280;35729;52.090;13.162;2023-03-01T13:01:26;102248.66;;;6.27;50.78
49835;BME280;35729;52.090;13.162;2023-03-01T13:04:07;102242.34;;;6.58;46.30
49835;BME280;35729;52.090;13.162;2023-03-01T13:06:47;102233.22;;;6.83;47.20
49835;BME280;35729;52.090;13.162;2023-03-01T13:09:24;102233.66;;;7.08;48.69
49835;BME280;35729;52.090;13.162;2023-03-01T13:11:58;102231.47;;;7.33;48.94
49835;BME280;35729;52.090;13.162;2023-03-01T13:14:45;102227.53;;;7.64;47.51
49835;BME280;35729;52.090;13.162;2023-03-01T13:17:31;102215.75;;;7.94;43.61
49835;BME280;35729;52.090;13.162;2023-03-01T13:19:59;102211.72;;;8.21;47.72